Terminal Aerodrome Forecast
Issued by NWS

Home | Current Version | Previous Version | Graphics & Text | Print | Product List | Glossary On
Versions: 1 2 3 4 5 6 7 8 9 10 11 12 13 14
000
FTUS43 KICT 112342
TAFSLN
TAF
KSLN 112342Z 1200/1224 34019G28KT P6SM SCT050
     FM120200 34015KT P6SM SCT045
     FM120600 34008KT P6SM SKC
     FM121500 27011KT P6SM SKC=

USA.gov is the U.S. government's official web portal to all federal, state and local government web resources and services.